createdAt,value
2022-08-28T00:00:21.401Z,8.98
2022-08-28T00:02:49.236Z,9.38
2022-08-28T00:05:19.040Z,9.02
2022-08-28T00:07:47.962Z,7.75
2022-08-28T00:10:17.391Z,8.85
2022-08-28T00:12:47.025Z,8.02
2022-08-28T00:15:19.706Z,8.68
2022-08-28T00:17:47.454Z,8.20
2022-08-28T00:20:17.541Z,8.43
2022-08-28T00:22:46.684Z,8.90
2022-08-28T00:25:15.831Z,7.90
2022-08-28T00:27:55.253Z,9.20
2022-08-28T00:30:29.503Z,8.30
2022-08-28T00:32:59.802Z,10.05
2022-08-28T00:35:27.654Z,9.65
2022-08-28T00:37:56.692Z,7.93
2022-08-28T00:40:33.093Z,10.27
2022-08-28T00:43:02.054Z,8.55
2022-08-28T00:45:37.333Z,8.70
2022-08-28T00:48:07.141Z,8.15
2022-08-28T00:51:00.325Z,10.63
2022-08-28T00:53:29.943Z,8.38
2022-08-28T00:56:02.093Z,8.38
2022-08-28T00:58:32.406Z,8.80
2022-08-28T01:01:01.698Z,9.43
2022-08-28T01:03:29.388Z,9.13
2022-08-28T01:05:57.132Z,8.85
2022-08-28T01:08:24.751Z,9.02
2022-08-28T01:11:02.114Z,9.50
2022-08-28T01:13:30.486Z,10.18
2022-08-28T01:15:58.828Z,8.70
2022-08-28T01:18:30.477Z,8.65
2022-08-28T01:21:06.450Z,10.75
2022-08-28T01:23:58.069Z,9.70
2022-08-28T01:26:26.537Z,9.10
2022-08-28T01:28:54.689Z,9.27
2022-08-28T01:31:22.623Z,8.77
2022-08-28T01:33:50.241Z,10.18
2022-08-28T01:36:19.554Z,10.70
2022-08-28T01:38:50.877Z,11.73
2022-08-28T01:41:20.827Z,12.27
2022-08-28T01:43:48.855Z,13.18
2022-08-28T01:46:17.133Z,14.70
2022-08-28T01:48:45.735Z,12.55
2022-08-28T01:51:14.803Z,11.60
2022-08-28T01:53:43.344Z,13.57
2022-08-28T01:56:17.074Z,13.48
2022-08-28T01:58:48.072Z,13.68
2022-08-28T02:01:18.292Z,13.02
2022-08-28T02:03:46.574Z,15.82
2022-08-28T02:06:15.605Z,16.60
2022-08-28T02:08:43.558Z,15.68
2022-08-28T02:11:12.309Z,15.60
2022-08-28T02:13:41.716Z,15.63
2022-08-28T02:16:11.646Z,13.82
2022-08-28T02:18:39.815Z,13.45
2022-08-28T02:21:08.580Z,12.70
2022-08-28T02:23:38.569Z,13.70
2022-08-28T02:26:06.543Z,12.80
2022-08-28T02:28:34.260Z,14.30
2022-08-28T02:31:01.909Z,14.55
2022-08-28T02:33:30.872Z,15.15
2022-08-28T02:35:58.819Z,14.95
2022-08-28T02:38:26.787Z,14.23
2022-08-28T02:40:54.428Z,14.32
2022-08-28T02:43:22.021Z,15.25
2022-08-28T02:45:49.626Z,13.13
2022-08-28T02:48:17.693Z,15.07
2022-08-28T02:50:47.135Z,15.52
2022-08-28T02:53:15.003Z,15.48
2022-08-28T02:55:42.699Z,15.13
2022-08-28T02:58:10.461Z,14.52
2022-08-28T03:00:38.128Z,14.45
2022-08-28T03:03:05.755Z,13.60
2022-08-28T03:05:34.466Z,14.27
2022-08-28T03:08:03.763Z,16.92
2022-08-28T03:10:31.731Z,15.40
2022-08-28T03:12:59.340Z,16.35
2022-08-28T03:15:26.898Z,15.88
2022-08-28T03:17:54.494Z,15.35
2022-08-28T03:20:22.152Z,14.90
2022-08-28T03:23:07.224Z,16.02
2022-08-28T03:25:36.368Z,15.82
2022-08-28T03:28:04.671Z,17.13
2022-08-28T03:30:32.435Z,16.90
2022-08-28T03:33:01.280Z,17.25
2022-08-28T03:35:28.881Z,17.13
2022-08-28T03:37:56.472Z,15.02
2022-08-28T03:40:24.625Z,15.82
2022-08-28T03:42:53.841Z,15.50
2022-08-28T03:45:21.967Z,15.18
2022-08-28T03:47:49.883Z,14.90
2022-08-28T03:50:19.662Z,15.27
2022-08-28T03:52:47.729Z,16.10
2022-08-28T03:55:15.430Z,15.43
2022-08-28T03:57:43.014Z,16.80
2022-08-28T04:00:14.368Z,17.27
2022-08-28T04:02:42.607Z,16.10
2022-08-28T04:05:11.291Z,14.70
2022-08-28T04:07:40.100Z,14.75
2022-08-28T04:10:08.993Z,14.80
2022-08-28T04:12:37.106Z,16.20
2022-08-28T04:15:07.062Z,15.27
2022-08-28T04:17:38.536Z,15.32
2022-08-28T04:20:07.531Z,15.77
2022-08-28T04:22:37.179Z,16.00
2022-08-28T04:25:05.505Z,16.13
2022-08-28T04:27:33.187Z,15.82
2022-08-28T04:30:00.985Z,16.17
2022-08-28T04:32:28.601Z,14.85
2022-08-28T04:34:57.508Z,14.70
2022-08-28T04:37:25.090Z,15.68
2022-08-28T04:39:55.889Z,16.80
2022-08-28T04:42:23.636Z,15.55
2022-08-28T04:44:51.619Z,15.77
2022-08-28T04:47:19.166Z,15.85
2022-08-28T04:49:46.828Z,15.55
2022-08-28T04:52:15.809Z,15.18
2022-08-28T04:54:43.420Z,16.35
2022-08-28T04:57:10.988Z,14.18
2022-08-28T04:59:39.124Z,15.45
2022-08-28T05:02:06.795Z,15.02
2022-08-28T05:04:34.550Z,17.00
2022-08-28T05:07:02.168Z,15.98
2022-08-28T05:09:31.858Z,15.65
2022-08-28T05:12:03.667Z,16.35
2022-08-28T05:14:31.357Z,15.82
2022-08-28T05:16:59.062Z,13.95
2022-08-28T05:19:28.431Z,15.75
2022-08-28T05:21:56.165Z,15.48
2022-08-28T05:24:23.827Z,15.07
2022-08-28T05:26:52.790Z,16.45
2022-08-28T05:29:20.968Z,16.17
2022-08-28T05:31:51.202Z,16.15
2022-08-28T05:34:18.881Z,14.25
2022-08-28T05:36:46.585Z,15.32
2022-08-28T05:39:15.056Z,14.65
2022-08-28T05:41:45.269Z,15.93
2022-08-28T05:44:16.215Z,14.20
2022-08-28T05:46:47.621Z,15.30
2022-08-28T05:49:15.806Z,15.37
2022-08-28T05:51:44.136Z,14.75
2022-08-28T05:54:12.990Z,14.80
2022-08-28T05:56:42.071Z,14.27
2022-08-28T05:59:10.918Z,15.13
2022-08-28T06:01:43.627Z,14.90
2022-08-28T06:04:18.228Z,14.93
2022-08-28T06:06:49.812Z,15.27
2022-08-28T06:09:25.313Z,16.35
2022-08-28T06:11:57.026Z,15.05
2022-08-28T06:14:27.218Z,15.95
2022-08-28T06:17:00.567Z,14.82
2022-08-28T06:19:32.366Z,15.27
2022-08-28T06:22:07.599Z,15.02
2022-08-28T06:24:36.043Z,14.35
2022-08-28T06:27:04.827Z,15.32
2022-08-28T06:29:36.194Z,13.50
2022-08-28T06:32:07.315Z,14.70
2022-08-28T06:34:36.783Z,15.00
2022-08-28T06:37:08.435Z,14.77
2022-08-28T06:39:39.861Z,15.63
2022-08-28T06:42:09.013Z,14.73
2022-08-28T06:47:59.921Z,14.75
2022-08-28T06:50:31.167Z,13.73
2022-08-28T06:53:01.850Z,14.70
2022-08-28T06:55:31.604Z,14.48
2022-08-28T06:58:02.835Z,13.75
2022-08-28T07:00:32.709Z,14.25
2022-08-28T07:03:05.425Z,13.98
2022-08-28T07:05:36.715Z,15.57
2022-08-28T07:08:07.530Z,16.55
2022-08-28T07:10:37.348Z,14.32
2022-08-28T07:13:07.080Z,14.82
2022-08-28T07:15:37.017Z,14.20
2022-08-28T07:18:12.806Z,13.63
2022-08-28T07:20:42.839Z,14.75
2022-08-28T07:23:12.154Z,13.43
2022-08-28T07:25:46.834Z,14.70
2022-08-28T07:28:17.288Z,13.75
2022-08-28T07:30:46.899Z,13.77
2022-08-28T07:33:18.009Z,13.40
2022-08-28T07:35:47.899Z,14.27
2022-08-28T07:38:17.503Z,13.93
2022-08-28T07:40:49.528Z,13.27
2022-08-28T07:43:35.681Z,13.60
2022-08-28T07:46:09.508Z,14.50
2022-08-28T07:48:42.742Z,13.02
2022-08-28T07:51:12.750Z,13.80
2022-08-28T07:53:45.172Z,13.48
2022-08-28T07:56:15.002Z,12.82
2022-08-28T07:58:44.766Z,12.73
2022-08-28T08:01:14.604Z,13.15
2022-08-28T08:03:50.504Z,12.85
2022-08-28T08:06:33.229Z,12.27
2022-08-28T08:09:04.016Z,12.32
2022-08-28T08:11:34.924Z,11.77
2022-08-28T08:14:11.452Z,12.80
2022-08-28T08:16:46.512Z,12.45
2022-08-28T08:19:21.314Z,11.38
2022-08-28T08:21:55.958Z,13.27
2022-08-28T08:24:31.358Z,11.10
2022-08-28T08:27:04.598Z,13.10
2022-08-28T08:29:40.446Z,11.98
2022-08-28T08:32:21.677Z,12.23
2022-08-28T08:35:06.168Z,12.20
2022-08-28T08:38:15.786Z,12.50
2022-08-28T08:40:47.818Z,12.07
2022-08-28T08:43:25.455Z,10.73
2022-08-28T08:48:52.425Z,11.10
2022-08-28T08:59:27.315Z,11.40
2022-08-28T09:02:16.010Z,10.20
2022-08-28T09:05:11.211Z,10.10
2022-08-28T09:08:29.145Z,11.35
2022-08-28T09:14:26.988Z,9.73
2022-08-28T09:31:08.331Z,9.98
2022-08-28T09:34:11.604Z,9.38
2022-08-28T09:39:48.699Z,9.15
2022-08-28T09:45:18.598Z,8.55
2022-08-28T09:47:49.655Z,9.13
2022-08-28T09:50:27.447Z,8.23
2022-08-28T09:52:57.410Z,9.00
2022-08-28T09:55:33.925Z,7.88
2022-08-28T09:58:04.357Z,8.35
2022-08-28T10:00:36.642Z,8.27
2022-08-28T10:03:11.062Z,8.18
2022-08-28T10:05:44.801Z,7.13
2022-08-28T10:08:25.580Z,7.78
2022-08-28T10:10:59.701Z,6.88
2022-08-28T10:13:32.466Z,6.97
2022-08-28T10:16:19.827Z,6.47
2022-08-28T10:18:57.294Z,7.10
2022-08-28T10:21:30.583Z,6.70
2022-08-28T10:24:15.121Z,6.85
2022-08-28T10:27:00.244Z,7.30
2022-08-28T10:29:42.337Z,6.90
2022-08-28T10:32:23.559Z,6.60
2022-08-28T10:35:03.979Z,6.40
2022-08-28T10:37:43.298Z,6.47
2022-08-28T10:40:17.284Z,6.13
2022-08-28T10:42:51.149Z,4.88
2022-08-28T10:45:24.697Z,5.85
2022-08-28T10:47:58.628Z,6.10
2022-08-28T10:50:30.390Z,6.47
2022-08-28T10:53:03.614Z,5.93
2022-08-28T10:55:39.044Z,7.85
2022-08-28T10:58:23.794Z,5.80
2022-08-28T11:00:56.502Z,5.80
2022-08-28T11:03:34.701Z,5.35
2022-08-28T11:06:11.254Z,5.43
2022-08-28T11:08:40.560Z,4.72
2022-08-28T11:11:14.781Z,4.95
2022-08-28T11:13:53.575Z,6.75
2022-08-28T11:16:25.389Z,4.90
2022-08-28T11:19:20.553Z,5.00
2022-08-28T11:21:53.099Z,4.93
2022-08-28T11:24:44.385Z,5.10
2022-08-28T11:27:23.763Z,4.85
2022-08-28T11:30:00.118Z,4.63
2022-08-28T11:32:38.894Z,6.82
2022-08-28T11:35:46.449Z,5.40
2022-08-28T11:38:52.824Z,5.57
2022-08-28T11:41:22.775Z,5.50
2022-08-28T11:43:53.404Z,5.35
2022-08-28T11:46:32.811Z,4.95
2022-08-28T11:49:03.739Z,5.15
2022-08-28T11:51:57.321Z,5.30
2022-08-28T11:54:39.275Z,5.53
2022-08-28T11:57:11.619Z,5.05
2022-08-28T12:00:08.221Z,4.95
2022-08-28T12:02:51.814Z,5.50
2022-08-28T12:05:53.981Z,5.10
2022-08-28T12:09:11.599Z,5.10
2022-08-28T12:11:51.510Z,4.80
2022-08-28T12:15:07.432Z,4.63
2022-08-28T12:17:50.085Z,5.28
2022-08-28T12:20:25.080Z,4.80
2022-08-28T12:22:56.533Z,4.20
2022-08-28T12:25:31.995Z,4.70
2022-08-28T12:28:04.718Z,4.10
2022-08-28T12:30:42.033Z,4.28
2022-08-28T12:33:16.966Z,3.92
2022-08-28T12:35:44.631Z,4.45
2022-08-28T12:38:20.340Z,4.15
2022-08-28T12:40:54.276Z,15.73
2022-08-28T12:43:30.821Z,5.50
2022-08-28T12:46:00.530Z,3.85
2022-08-28T12:48:32.371Z,3.58
2022-08-28T12:51:04.258Z,4.15
2022-08-28T12:53:44.916Z,4.43
2022-08-28T12:56:14.459Z,3.80
2022-08-28T12:58:43.783Z,3.85
2022-08-28T13:01:15.912Z,3.88
2022-08-28T13:03:46.212Z,4.20
2022-08-28T13:06:14.520Z,4.50
2022-08-28T13:08:43.496Z,4.57
2022-08-28T13:11:11.223Z,4.00
2022-08-28T13:13:47.127Z,4.10
2022-08-28T13:16:35.830Z,4.22
2022-08-28T13:19:26.180Z,4.00
2022-08-28T13:22:00.274Z,3.72
2022-08-28T13:24:41.178Z,4.18
2022-08-28T13:27:22.106Z,4.60
2022-08-28T13:29:59.826Z,4.20
2022-08-28T13:32:30.217Z,4.43
2022-08-28T13:35:10.194Z,4.32
2022-08-28T13:37:47.902Z,3.67
2022-08-28T13:40:46.360Z,4.38
2022-08-28T13:43:11.149Z,3.85
2022-08-28T13:45:42.964Z,3.90
2022-08-28T13:48:12.069Z,4.28
2022-08-28T13:50:47.283Z,3.53
2022-08-28T13:53:16.602Z,4.20
2022-08-28T13:55:44.309Z,3.88
2022-08-28T13:58:13.820Z,4.20
2022-08-28T14:00:44.982Z,4.18
2022-08-28T14:03:30.813Z,4.47
2022-08-28T14:05:59.851Z,4.00
2022-08-28T14:08:27.479Z,4.30
2022-08-28T14:10:55.344Z,4.45
2022-08-28T14:13:27.472Z,4.47
2022-08-28T14:18:22.904Z,3.72
2022-08-28T14:20:50.528Z,3.92
2022-08-28T14:23:19.579Z,3.45
2022-08-28T14:25:49.102Z,3.65
2022-08-28T14:28:17.837Z,3.90
2022-08-28T14:30:51.965Z,3.70
2022-08-28T14:33:25.761Z,3.42
2022-08-28T14:35:53.443Z,3.40
2022-08-28T14:38:22.418Z,3.72
2022-08-28T14:40:53.070Z,3.22
2022-08-28T14:43:22.513Z,3.75
2022-08-28T14:45:51.938Z,4.50
2022-08-28T14:48:20.050Z,5.93
2022-08-28T14:50:50.318Z,12.27
2022-08-28T14:53:18.017Z,4.25
2022-08-28T14:55:49.316Z,3.83
2022-08-28T14:58:18.519Z,3.80
2022-08-28T15:00:49.056Z,3.80
2022-08-28T15:03:18.484Z,3.58
2022-08-28T15:05:46.800Z,3.72
2022-08-28T15:08:16.769Z,4.20
2022-08-28T15:10:45.818Z,3.90
2022-08-28T15:13:15.353Z,3.83
2022-08-28T15:15:43.149Z,3.47
2022-08-28T15:18:12.452Z,3.60
2022-08-28T15:20:41.999Z,3.55
2022-08-28T15:23:10.925Z,3.47
2022-08-28T15:25:39.117Z,3.55
2022-08-28T15:28:07.776Z,3.70
2022-08-28T15:30:37.638Z,3.95
2022-08-28T15:33:06.483Z,3.30
2022-08-28T15:35:34.503Z,4.10
2022-08-28T15:38:02.130Z,4.03
2022-08-28T15:43:47.669Z,3.88
2022-08-28T16:08:11.345Z,4.57
2022-08-28T16:11:32.285Z,3.70
2022-08-28T16:58:57.852Z,3.95
2022-08-28T17:01:27.929Z,4.15
2022-08-28T17:03:58.325Z,4.78
2022-08-28T17:06:31.581Z,3.97
2022-08-28T17:09:01.774Z,4.07
2022-08-28T17:11:32.443Z,3.88
2022-08-28T17:14:04.025Z,4.07
2022-08-28T17:16:33.527Z,4.00
2022-08-28T17:19:02.943Z,4.32
2022-08-28T17:21:49.048Z,3.90
2022-08-28T17:24:19.019Z,3.63
2022-08-28T17:26:49.700Z,4.15
2022-08-28T17:29:22.141Z,3.72
2022-08-28T17:31:51.350Z,4.32
2022-08-28T17:34:21.334Z,3.97
2022-08-28T17:36:53.387Z,4.38
2022-08-28T17:39:23.245Z,4.10
2022-08-28T17:41:53.785Z,4.22
2022-08-28T17:44:23.869Z,4.25
2022-08-28T17:46:53.550Z,4.05
2022-08-28T17:49:23.824Z,3.45
2022-08-28T17:51:53.935Z,4.10
2022-08-28T17:54:25.575Z,5.10
2022-08-28T17:56:56.239Z,4.38
2022-08-28T17:59:29.258Z,4.13
2022-08-28T18:01:59.425Z,5.22
2022-08-28T18:04:29.837Z,4.70
2022-08-28T18:07:02.241Z,4.60
2022-08-28T18:09:31.950Z,7.00
2022-08-28T18:12:02.631Z,3.90
2022-08-28T18:14:35.863Z,4.97
2022-08-28T18:17:07.059Z,5.15
2022-08-28T18:19:40.489Z,4.63
2022-08-28T18:22:11.543Z,4.50
2022-08-28T18:24:41.898Z,4.28
2022-08-28T18:27:12.298Z,3.75
2022-08-28T18:29:43.165Z,4.15
2022-08-28T18:32:14.467Z,4.50
2022-08-28T18:34:44.267Z,4.10
2022-08-28T18:37:14.642Z,4.07
2022-08-28T18:39:45.580Z,4.43
2022-08-28T18:42:15.450Z,4.43
2022-08-28T18:44:46.506Z,3.90
2022-08-28T18:47:16.239Z,4.75
2022-08-28T18:49:45.724Z,4.13
2022-08-28T18:52:15.906Z,4.00
2022-08-28T18:54:45.374Z,4.95
2022-08-28T18:57:15.770Z,4.97
2022-08-28T18:59:46.442Z,4.88
2022-08-28T19:02:16.382Z,4.60
2022-08-28T19:04:47.298Z,4.88
2022-08-28T19:07:16.822Z,5.07
2022-08-28T19:09:46.265Z,5.30
2022-08-28T19:12:15.507Z,4.47
2022-08-28T19:14:46.456Z,4.95
2022-08-28T19:17:20.917Z,5.05
2022-08-28T19:19:50.913Z,4.68
2022-08-28T19:22:21.664Z,4.55
2022-08-28T19:24:51.060Z,5.35
2022-08-28T19:27:20.725Z,5.22
2022-08-28T19:29:51.734Z,5.22
2022-08-28T19:32:24.126Z,5.53
2022-08-28T19:34:55.299Z,5.57
2022-08-28T19:37:23.509Z,5.40
2022-08-28T19:39:56.214Z,5.32
2022-08-28T19:42:25.252Z,5.15
2022-08-28T19:44:59.692Z,5.88
2022-08-28T19:47:27.999Z,6.18
2022-08-28T19:50:03.297Z,6.22
2022-08-28T19:52:31.095Z,5.45
2022-08-28T19:55:02.155Z,5.35
2022-08-28T19:57:29.821Z,6.05
2022-08-28T20:00:00.431Z,5.82
2022-08-28T20:02:28.738Z,5.85
2022-08-28T20:04:58.301Z,5.28
2022-08-28T20:07:27.484Z,6.00
2022-08-28T20:09:56.436Z,5.97
2022-08-28T20:12:25.510Z,5.93
2022-08-28T20:14:54.876Z,5.82
2022-08-28T20:17:25.599Z,5.05
2022-08-28T20:19:55.123Z,5.18
2022-08-28T20:22:23.837Z,5.57
2022-08-28T20:24:53.054Z,5.70
2022-08-28T20:27:22.510Z,5.50
2022-08-28T20:29:51.406Z,5.85
2022-08-28T20:32:20.595Z,6.22
2022-08-28T20:34:51.638Z,5.63
2022-08-28T20:37:20.454Z,5.82
2022-08-28T20:39:49.303Z,5.25
2022-08-28T20:42:18.285Z,5.80
2022-08-28T20:44:47.369Z,5.68
2022-08-28T20:47:16.527Z,5.78
2022-08-28T20:49:45.354Z,6.07
2022-08-28T20:52:16.010Z,6.03
2022-08-28T20:54:45.405Z,5.70
2022-08-28T20:57:19.009Z,5.85
2022-08-28T20:59:48.304Z,6.25
2022-08-28T21:02:20.707Z,6.22
2022-08-28T21:07:22.356Z,6.32
2022-08-28T21:10:05.374Z,5.57
2022-08-28T21:12:36.591Z,6.15
2022-08-28T21:15:06.349Z,6.25
2022-08-28T21:17:35.069Z,5.82
2022-08-28T21:20:08.815Z,5.07
2022-08-28T21:22:40.089Z,5.18
2022-08-28T21:25:11.075Z,5.85
2022-08-28T21:27:40.254Z,6.13
2022-08-28T21:30:10.585Z,5.55
2022-08-28T21:32:39.650Z,6.57
2022-08-28T21:35:12.802Z,6.68
2022-08-28T21:37:44.066Z,6.75
2022-08-28T21:40:15.280Z,5.95
2022-08-28T21:42:44.725Z,6.05
2022-08-28T21:45:14.034Z,6.13
2022-08-28T21:47:43.498Z,6.05
2022-08-28T21:50:13.168Z,6.80
2022-08-28T21:52:43.560Z,6.43
2022-08-28T21:55:16.096Z,5.97
2022-08-28T21:57:44.903Z,6.15
2022-08-28T22:00:18.196Z,6.40
2022-08-28T22:02:49.282Z,6.40
2022-08-28T22:05:18.785Z,6.63
2022-08-28T22:07:49.174Z,6.75
2022-08-28T22:10:18.490Z,6.88
2022-08-28T22:12:47.431Z,6.35
2022-08-28T22:15:16.399Z,6.88
2022-08-28T22:17:45.231Z,6.90
2022-08-28T22:20:14.043Z,6.15
2022-08-28T22:22:59.539Z,6.40
2022-08-28T22:25:30.029Z,6.88
2022-08-28T22:27:58.922Z,7.07
2022-08-28T22:30:27.673Z,6.68
2022-08-28T22:32:56.467Z,6.63
2022-08-28T22:35:25.225Z,7.20
2022-08-28T22:37:53.853Z,7.43
2022-08-28T22:40:23.320Z,7.30
2022-08-28T22:42:53.481Z,7.03
2022-08-28T22:45:22.831Z,6.72
2022-08-28T22:47:51.524Z,6.68
2022-08-28T22:50:20.559Z,7.10
2022-08-28T22:52:50.522Z,6.70
2022-08-28T22:55:21.188Z,6.75
2022-08-28T22:57:49.963Z,6.72
2022-08-28T23:00:24.816Z,6.55
2022-08-28T23:02:53.628Z,7.78
2022-08-28T23:05:22.502Z,7.07
2022-08-28T23:07:50.960Z,7.07
2022-08-28T23:10:18.841Z,7.80
2022-08-28T23:12:46.481Z,7.88
2022-08-28T23:15:17.149Z,7.55
2022-08-28T23:17:46.207Z,7.75
2022-08-28T23:20:17.328Z,7.90
2022-08-28T23:22:45.541Z,8.60
2022-08-28T23:25:16.495Z,8.13
2022-08-28T23:27:44.212Z,7.95
2022-08-28T23:30:13.597Z,9.77
2022-08-28T23:32:41.460Z,9.35
2022-08-28T23:35:12.818Z,9.73
2022-08-28T23:37:41.117Z,10.43
2022-08-28T23:40:12.629Z,8.13
2022-08-28T23:42:40.676Z,8.68
2022-08-28T23:45:10.511Z,8.57
2022-08-28T23:47:40.409Z,8.55
2022-08-28T23:50:12.866Z,9.90
2022-08-28T23:52:40.505Z,7.40
2022-08-28T23:55:09.199Z,6.85
2022-08-28T23:57:37.622Z,6.97
